createdAt,value
2023-04-03T00:00:11.462Z,0.00
2023-04-03T00:01:11.469Z,0.00
2023-04-03T00:02:11.456Z,0.00
2023-04-03T00:03:11.510Z,0.00
2023-04-03T00:04:11.494Z,0.00
2023-04-03T00:05:11.414Z,0.00
2023-04-03T00:06:11.408Z,0.00
2023-04-03T00:07:11.393Z,0.00
2023-04-03T00:08:11.386Z,0.00
2023-04-03T00:09:11.381Z,0.00
2023-04-03T00:10:32.380Z,0.00
2023-04-03T00:11:11.369Z,0.00
2023-04-03T00:12:11.343Z,0.00
2023-04-03T00:13:32.344Z,0.00
2023-04-03T00:14:11.324Z,0.00
2023-04-03T00:15:11.342Z,0.00
2023-04-03T00:16:11.312Z,0.00
2023-04-03T00:17:11.344Z,0.00
2023-04-03T00:18:11.282Z,0.00
2023-04-03T00:19:11.279Z,0.00
2023-04-03T00:20:11.262Z,0.00
2023-04-03T00:21:11.251Z,0.00
2023-04-03T00:22:11.243Z,0.00
2023-04-03T00:23:11.234Z,0.00
2023-04-03T00:24:11.218Z,0.00
2023-04-03T00:25:11.221Z,0.00
2023-04-03T00:26:11.197Z,0.00
2023-04-03T00:27:11.197Z,0.00
2023-04-03T00:28:11.190Z,0.00
2023-04-03T00:29:11.184Z,0.00
2023-04-03T00:30:11.183Z,0.00
2023-04-03T00:31:11.225Z,0.00
2023-04-03T00:32:11.157Z,0.00
2023-04-03T00:33:11.147Z,0.00
2023-04-03T00:34:11.125Z,0.00
2023-04-03T00:35:11.121Z,0.00
2023-04-03T00:36:11.224Z,0.00
2023-04-03T00:37:11.095Z,0.00
2023-04-03T00:38:11.096Z,0.00
2023-04-03T00:39:11.072Z,0.00
2023-04-03T00:40:11.063Z,0.00
2023-04-03T00:41:11.054Z,0.00
2023-04-03T00:42:11.042Z,0.00
2023-04-03T00:43:11.037Z,0.00
2023-04-03T00:44:11.017Z,0.00
2023-04-03T00:45:11.019Z,0.00
2023-04-03T00:46:11.003Z,0.00
2023-04-03T00:47:10.993Z,0.00
2023-04-03T00:48:10.991Z,0.00
2023-04-03T00:49:10.969Z,0.00
2023-04-03T00:50:10.958Z,0.00
2023-04-03T00:51:10.946Z,0.00
2023-04-03T00:52:10.935Z,0.00
2023-04-03T00:53:10.928Z,0.00
2023-04-03T00:54:10.910Z,0.00
2023-04-03T00:55:10.904Z,0.00
2023-04-03T00:56:10.897Z,0.00
2023-04-03T00:57:10.933Z,0.00
2023-04-03T00:58:10.875Z,0.00
2023-04-03T00:59:10.876Z,0.00
2023-04-03T01:00:10.861Z,0.00
2023-04-03T01:01:10.850Z,0.00
2023-04-03T01:02:10.829Z,0.00
2023-04-03T01:03:10.826Z,0.00
2023-04-03T01:04:10.845Z,0.00
2023-04-03T01:05:10.815Z,0.00
2023-04-03T01:06:10.802Z,0.00
2023-04-03T01:07:10.794Z,0.00
2023-04-03T01:08:10.785Z,0.00
2023-04-03T01:09:10.766Z,0.00
2023-04-03T01:10:10.753Z,0.00
2023-04-03T01:11:10.747Z,0.00
2023-04-03T01:12:10.738Z,0.00
2023-04-03T01:13:10.742Z,0.00
2023-04-03T01:14:10.710Z,0.00
2023-04-03T01:15:10.713Z,0.00
2023-04-03T01:16:10.758Z,0.00
2023-04-03T01:17:10.692Z,0.00
2023-04-03T01:18:10.702Z,0.00
2023-04-03T01:19:10.680Z,0.00
2023-04-03T01:20:10.663Z,0.00
2023-04-03T01:21:10.651Z,0.00
2023-04-03T01:22:10.639Z,0.00
2023-04-03T01:23:10.642Z,0.00
2023-04-03T01:24:10.617Z,0.00
2023-04-03T01:25:10.615Z,0.00
2023-04-03T01:26:10.597Z,0.00
2023-04-03T01:27:10.595Z,0.00
2023-04-03T01:28:10.576Z,0.00
2023-04-03T01:29:10.571Z,0.00
2023-04-03T01:30:10.561Z,0.00
2023-04-03T01:31:10.573Z,0.00
2023-04-03T01:32:10.536Z,0.00
2023-04-03T01:33:10.525Z,0.00
2023-04-03T01:34:10.511Z,0.00
2023-04-03T01:35:10.510Z,0.00
2023-04-03T01:36:10.552Z,0.00
2023-04-03T01:37:10.485Z,0.00
2023-04-03T01:38:10.464Z,0.00
2023-04-03T01:39:10.463Z,0.00
2023-04-03T01:40:10.450Z,0.00
2023-04-03T01:41:11.466Z,0.00
2023-04-03T01:42:10.431Z,0.00
2023-04-03T01:43:10.413Z,0.00
2023-04-03T01:44:10.413Z,0.00
2023-04-03T01:45:10.407Z,0.00
2023-04-03T01:46:12.508Z,0.00
2023-04-03T01:47:10.404Z,0.00
2023-04-03T01:48:10.380Z,0.00
2023-04-03T01:49:10.365Z,0.00
2023-04-03T01:50:10.374Z,0.00
2023-04-03T01:51:10.353Z,0.00
2023-04-03T01:52:10.329Z,0.00
2023-04-03T01:53:10.326Z,0.00
2023-04-03T01:54:10.321Z,0.00
2023-04-03T01:55:10.296Z,0.00
2023-04-03T01:56:10.296Z,0.00
2023-04-03T01:57:10.306Z,0.00
2023-04-03T01:58:10.268Z,0.00
2023-04-03T01:59:10.264Z,0.00
2023-04-03T02:00:10.244Z,0.00
2023-04-03T02:01:10.268Z,0.00
2023-04-03T02:02:10.232Z,0.00
2023-04-03T02:03:10.253Z,0.00
2023-04-03T02:04:10.242Z,0.00
2023-04-03T02:05:10.199Z,0.00
2023-04-03T02:06:12.005Z,0.00
2023-04-03T02:07:10.194Z,0.00
2023-04-03T02:08:10.186Z,0.00
2023-04-03T02:09:10.159Z,0.00
2023-04-03T02:10:10.143Z,0.00
2023-04-03T02:11:10.143Z,0.00
2023-04-03T02:12:10.142Z,0.00
2023-04-03T02:13:10.111Z,0.00
2023-04-03T02:14:10.111Z,0.00
2023-04-03T02:15:10.098Z,0.00
2023-04-03T02:16:10.113Z,0.00
2023-04-03T02:17:10.076Z,0.00
2023-04-03T02:18:10.081Z,0.00
2023-04-03T02:19:10.073Z,0.00
2023-04-03T02:20:10.042Z,0.00
2023-04-03T02:21:11.981Z,0.00
2023-04-03T02:22:10.030Z,0.00
2023-04-03T02:23:10.022Z,0.00
2023-04-03T02:24:10.003Z,0.00
2023-04-03T02:25:09.992Z,0.00
2023-04-03T02:26:09.985Z,0.00
2023-04-03T02:27:09.976Z,0.00
2023-04-03T02:28:09.956Z,0.00
2023-04-03T02:29:09.952Z,0.00
2023-04-03T02:30:09.930Z,0.00
2023-04-03T02:31:09.958Z,0.00
2023-04-03T02:32:09.918Z,0.00
2023-04-03T02:33:09.907Z,0.00
2023-04-03T02:34:09.920Z,0.00
2023-04-03T02:35:09.894Z,0.00
2023-04-03T02:36:09.885Z,0.00
2023-04-03T02:37:09.876Z,0.00
2023-04-03T02:38:09.861Z,0.00
2023-04-03T02:39:09.858Z,0.00
2023-04-03T02:40:09.848Z,0.00
2023-04-03T02:41:09.822Z,0.00
2023-04-03T02:42:09.821Z,0.00
2023-04-03T02:43:09.796Z,0.00
2023-04-03T02:44:09.802Z,0.00
2023-04-03T02:45:09.786Z,0.00
2023-04-03T02:46:09.815Z,0.00
2023-04-03T02:47:09.772Z,0.00
2023-04-03T02:48:09.794Z,0.00
2023-04-03T02:49:09.769Z,0.00
2023-04-03T02:50:09.737Z,0.00
2023-04-03T02:51:09.731Z,0.00
2023-04-03T02:52:09.718Z,0.00
2023-04-03T02:53:09.718Z,0.00
2023-04-03T02:54:09.701Z,0.00
2023-04-03T02:55:09.693Z,0.00
2023-04-03T02:56:09.683Z,0.00
2023-04-03T02:57:09.723Z,0.00
2023-04-03T02:58:09.869Z,0.00
2023-04-03T02:59:09.656Z,0.00
2023-04-03T03:00:09.666Z,0.00
2023-04-03T03:01:09.711Z,0.00
2023-04-03T03:02:09.617Z,0.00
2023-04-03T03:03:09.612Z,0.00
2023-04-03T03:04:09.601Z,0.00
2023-04-03T03:05:09.638Z,0.00
2023-04-03T03:06:30.580Z,0.00
2023-04-03T03:07:09.575Z,0.00
2023-04-03T03:08:09.560Z,0.00
2023-04-03T03:09:09.541Z,0.00
2023-04-03T03:10:09.567Z,0.00
2023-04-03T03:11:09.554Z,0.00
2023-04-03T03:12:09.514Z,0.00
2023-04-03T03:13:09.501Z,0.00
2023-04-03T03:14:09.497Z,0.00
2023-04-03T03:15:09.487Z,0.00
2023-04-03T03:16:09.505Z,0.00
2023-04-03T03:17:09.477Z,0.00
2023-04-03T03:18:09.456Z,0.00
2023-04-03T03:19:09.442Z,0.00
2023-04-03T03:20:09.428Z,0.00
2023-04-03T03:21:09.418Z,0.00
2023-04-03T03:22:09.408Z,0.00
2023-04-03T03:23:30.419Z,0.00
2023-04-03T03:24:09.392Z,0.00
2023-04-03T03:25:09.378Z,0.00
2023-04-03T03:26:09.365Z,0.00
2023-04-03T03:27:09.357Z,0.00
2023-04-03T03:28:09.346Z,0.00
2023-04-03T03:29:09.350Z,0.00
2023-04-03T03:30:09.328Z,0.00
2023-04-03T03:31:09.359Z,0.00
2023-04-03T03:32:09.303Z,0.00
2023-04-03T03:33:09.293Z,0.00
2023-04-03T03:34:09.281Z,0.00
2023-04-03T03:35:09.274Z,0.00
2023-04-03T03:36:09.319Z,0.00
2023-04-03T03:37:09.249Z,0.00
2023-04-03T03:38:12.007Z,0.00
2023-04-03T03:39:09.258Z,0.00
2023-04-03T03:40:09.238Z,0.00
2023-04-03T03:41:09.198Z,0.00
2023-04-03T03:42:09.202Z,0.00
2023-04-03T03:43:09.213Z,0.00
2023-04-03T03:44:09.183Z,0.00
2023-04-03T03:45:09.161Z,0.00
2023-04-03T03:46:09.176Z,0.00
2023-04-03T03:47:09.151Z,0.00
2023-04-03T03:48:09.139Z,0.00
2023-04-03T03:49:09.126Z,0.00
2023-04-03T03:50:09.125Z,0.00
2023-04-03T03:51:09.101Z,0.00
2023-04-03T03:52:09.108Z,0.00
2023-04-03T03:53:09.093Z,0.00
2023-04-03T03:54:09.109Z,0.00
2023-04-03T03:55:09.105Z,0.00
2023-04-03T03:56:09.052Z,0.00
2023-04-03T03:57:09.120Z,0.00
2023-04-03T03:58:09.032Z,0.00
2023-04-03T03:59:09.026Z,0.00
2023-04-03T04:00:09.006Z,0.00
2023-04-03T04:01:09.006Z,0.00
2023-04-03T04:02:09.149Z,0.00
2023-04-03T04:03:09.024Z,0.00
2023-04-03T04:04:09.067Z,0.00
2023-04-03T04:05:08.951Z,0.00
2023-04-03T04:06:08.952Z,0.00
2023-04-03T04:07:08.925Z,0.00
2023-04-03T04:08:08.925Z,0.00
2023-04-03T04:09:08.925Z,0.00
2023-04-03T04:10:08.900Z,0.00
2023-04-03T04:11:08.897Z,0.00
2023-04-03T04:12:08.882Z,0.00
2023-04-03T04:13:08.872Z,0.00
2023-04-03T04:14:08.850Z,0.00
2023-04-03T04:15:08.847Z,0.00
2023-04-03T04:16:08.835Z,0.00
2023-04-03T04:17:08.869Z,0.00
2023-04-03T04:18:08.812Z,0.00
2023-04-03T04:19:09.063Z,0.00
2023-04-03T04:20:08.803Z,0.00
2023-04-03T04:21:08.823Z,0.00
2023-04-03T04:22:08.782Z,0.00
2023-04-03T04:23:08.755Z,0.00
2023-04-03T04:24:08.753Z,0.00
2023-04-03T04:25:08.730Z,0.00
2023-04-03T04:26:08.733Z,0.00
2023-04-03T04:27:08.723Z,0.00
2023-04-03T04:28:08.694Z,0.00
2023-04-03T04:29:08.697Z,0.00
2023-04-03T04:30:08.699Z,0.00
2023-04-03T04:31:08.749Z,0.00
2023-04-03T04:32:08.651Z,0.00
2023-04-03T04:33:08.671Z,0.00
2023-04-03T04:34:08.630Z,0.00
2023-04-03T04:35:08.667Z,0.00
2023-04-03T04:36:08.664Z,0.00
2023-04-03T04:37:08.620Z,0.00
2023-04-03T04:38:08.587Z,0.00
2023-04-03T04:39:08.570Z,0.00
2023-04-03T04:40:08.558Z,4.00
2023-04-03T04:41:08.549Z,0.00
2023-04-03T04:42:08.563Z,0.00
2023-04-03T04:43:08.520Z,4.00
2023-04-03T04:44:08.525Z,4.00
2023-04-03T04:45:08.512Z,0.00
2023-04-03T04:46:08.520Z,4.00
2023-04-03T04:47:08.478Z,4.00
2023-04-03T04:48:08.473Z,4.00
2023-04-03T04:49:08.456Z,4.00
2023-04-03T04:50:08.440Z,8.00
2023-04-03T04:51:08.426Z,8.00
2023-04-03T04:52:08.423Z,8.00
2023-04-03T04:53:08.399Z,8.00
2023-04-03T04:54:10.462Z,8.00
2023-04-03T04:55:08.386Z,12.00
2023-04-03T04:56:08.355Z,16.00
2023-04-03T04:57:08.379Z,12.00
2023-04-03T04:58:08.337Z,16.00
2023-04-03T04:59:08.327Z,20.00
2023-04-03T05:00:08.322Z,24.00
2023-04-03T05:01:08.301Z,28.00
2023-04-03T05:02:08.349Z,28.00
2023-04-03T05:03:08.293Z,32.00
2023-04-03T05:04:08.266Z,32.00
2023-04-03T05:05:08.301Z,40.00
2023-04-03T05:06:08.249Z,44.00
2023-04-03T05:07:08.228Z,44.00
2023-04-03T05:08:08.217Z,48.00
2023-04-03T05:09:08.205Z,56.00
2023-04-03T05:10:08.187Z,60.00
2023-04-03T05:11:08.178Z,64.00
2023-04-03T05:12:08.155Z,68.00
2023-04-03T05:13:08.153Z,72.00
2023-04-03T05:14:08.154Z,80.00
2023-04-03T05:15:08.136Z,84.00
2023-04-03T05:16:08.154Z,88.00
2023-04-03T05:17:08.101Z,92.00
2023-04-03T05:18:08.180Z,104.00
2023-04-03T05:19:29.088Z,108.00
2023-04-03T05:20:08.074Z,112.00
2023-04-03T05:21:08.064Z,116.00
2023-04-03T05:22:08.040Z,124.00
2023-04-03T05:23:08.027Z,128.00
2023-04-03T05:24:08.011Z,132.00
2023-04-03T05:25:07.998Z,140.00
2023-04-03T05:26:08.002Z,144.00
2023-04-03T05:27:07.989Z,152.00
2023-04-03T05:28:07.988Z,156.00
2023-04-03T05:29:07.954Z,160.00
2023-04-03T05:30:07.945Z,168.00
2023-04-03T05:31:08.010Z,172.00
2023-04-03T05:32:07.917Z,180.00
2023-04-03T05:33:08.042Z,184.00
2023-04-03T05:34:07.888Z,192.00
2023-04-03T05:35:07.882Z,200.00
2023-04-03T05:36:07.942Z,204.00
2023-04-03T05:37:07.853Z,208.00
2023-04-03T05:38:07.833Z,212.00
2023-04-03T05:39:07.816Z,220.00
2023-04-03T05:40:07.818Z,224.00
2023-04-03T05:41:07.798Z,228.00
2023-04-03T05:42:07.777Z,232.00
2023-04-03T05:43:07.771Z,236.00
2023-04-03T05:44:07.768Z,244.00
2023-04-03T05:45:07.762Z,248.00
2023-04-03T05:46:07.772Z,252.00
2023-04-03T05:47:07.713Z,256.00
2023-04-03T05:48:07.790Z,264.00
2023-04-03T05:49:07.696Z,268.00
2023-04-03T05:50:07.676Z,268.00
2023-04-03T05:51:07.673Z,272.00
2023-04-03T05:52:07.649Z,280.00
2023-04-03T05:53:07.658Z,284.00
2023-04-03T05:54:07.628Z,288.00
2023-04-03T05:55:07.616Z,292.00
2023-04-03T05:56:07.602Z,296.00
2023-04-03T05:57:07.627Z,296.00
2023-04-03T05:58:09.218Z,304.00
2023-04-03T05:59:07.570Z,308.00
2023-04-03T06:00:07.554Z,308.00
2023-04-03T06:01:07.540Z,312.00
2023-04-03T06:02:07.523Z,316.00
2023-04-03T06:03:07.660Z,320.00
2023-04-03T06:04:07.583Z,320.00
2023-04-03T06:05:07.592Z,328.00
2023-04-03T06:06:07.497Z,332.00
2023-04-03T06:07:08.478Z,332.00
2023-04-03T06:08:07.435Z,336.00
2023-04-03T06:09:07.449Z,340.00
2023-04-03T06:10:07.424Z,344.00
2023-04-03T06:11:07.415Z,344.00
2023-04-03T06:12:07.407Z,348.00
2023-04-03T06:13:07.386Z,352.00
2023-04-03T06:14:07.375Z,352.00
2023-04-03T06:15:07.364Z,356.00
2023-04-03T06:16:07.346Z,364.00
2023-04-03T06:17:07.355Z,368.00
2023-04-03T06:18:07.406Z,368.00
2023-04-03T06:19:07.304Z,372.00
2023-04-03T06:20:07.306Z,376.00
2023-04-03T06:21:07.390Z,376.00
2023-04-03T06:22:07.269Z,380.00
2023-04-03T06:23:08.537Z,384.00
2023-04-03T06:24:07.260Z,384.00
2023-04-03T06:25:07.237Z,388.00
2023-04-03T06:26:08.265Z,392.00
2023-04-03T06:27:07.213Z,396.00
2023-04-03T06:28:07.203Z,396.00
2023-04-03T06:29:07.213Z,400.00
2023-04-03T06:30:07.169Z,400.00
2023-04-03T06:31:07.173Z,404.00
2023-04-03T06:32:07.180Z,404.00
2023-04-03T06:33:07.140Z,408.00
2023-04-03T06:34:09.359Z,412.00
2023-04-03T06:35:07.100Z,412.00
2023-04-03T06:36:28.100Z,416.00
2023-04-03T06:37:07.084Z,420.00
2023-04-03T06:38:07.063Z,424.00
2023-04-03T06:39:07.153Z,424.00
2023-04-03T06:40:07.047Z,428.00
2023-04-03T06:41:07.038Z,432.00
2023-04-03T06:42:07.020Z,436.00
2023-04-03T06:43:07.018Z,436.00
2023-04-03T06:44:28.014Z,440.00
2023-04-03T06:45:06.981Z,444.00
2023-04-03T06:46:06.986Z,448.00
2023-04-03T06:47:06.969Z,444.00
2023-04-03T06:48:06.972Z,448.00
2023-04-03T06:49:06.932Z,452.00
2023-04-03T06:50:06.908Z,452.00
2023-04-03T06:51:06.898Z,456.00
2023-04-03T06:52:06.895Z,460.00
2023-04-03T06:53:06.884Z,464.00
2023-04-03T06:54:06.895Z,460.00
2023-04-03T06:55:06.864Z,464.00
2023-04-03T06:56:06.840Z,468.00
2023-04-03T06:57:06.869Z,472.00
2023-04-03T06:58:07.822Z,476.00
2023-04-03T06:59:06.808Z,476.00
2023-04-03T07:00:06.810Z,480.00
2023-04-03T07:01:06.897Z,480.00
2023-04-03T07:02:06.869Z,484.00
2023-04-03T07:03:06.801Z,488.00
2023-04-03T07:04:06.814Z,488.00
2023-04-03T07:05:06.742Z,492.00
2023-04-03T07:06:06.735Z,492.00
2023-04-03T07:07:06.722Z,496.00
2023-04-03T07:08:06.705Z,500.00
2023-04-03T07:09:06.695Z,504.00
2023-04-03T07:10:06.671Z,504.00
2023-04-03T07:11:06.670Z,508.00
2023-04-03T07:12:06.647Z,512.00
2023-04-03T07:13:06.643Z,512.00
2023-04-03T07:14:06.653Z,516.00
2023-04-03T07:15:06.874Z,516.00
2023-04-03T07:16:06.626Z,516.00
2023-04-03T07:17:29.652Z,520.00
2023-04-03T07:18:06.601Z,524.00
2023-04-03T07:19:06.560Z,524.00
2023-04-03T07:20:06.559Z,524.00
2023-04-03T07:21:06.532Z,528.00
2023-04-03T07:22:07.609Z,528.00
2023-04-03T07:23:06.531Z,532.00
2023-04-03T07:24:06.652Z,536.00
2023-04-03T07:25:06.504Z,540.00
2023-04-03T07:26:06.485Z,544.00
2023-04-03T07:27:06.480Z,548.00
2023-04-03T07:28:06.462Z,548.00
2023-04-03T07:29:06.462Z,548.00
2023-04-03T07:30:06.434Z,552.00
2023-04-03T07:31:06.427Z,556.00
2023-04-03T07:32:06.458Z,560.00
2023-04-03T07:33:06.454Z,560.00
2023-04-03T07:34:06.432Z,560.00
2023-04-03T07:35:06.387Z,568.00
2023-04-03T07:36:06.382Z,568.00
2023-04-03T07:37:06.369Z,568.00
2023-04-03T07:38:06.349Z,572.00
2023-04-03T07:39:06.339Z,576.00
2023-04-03T07:40:28.352Z,580.00
2023-04-03T07:41:06.308Z,580.00
2023-04-03T07:42:06.301Z,584.00
2023-04-03T07:43:06.295Z,584.00
2023-04-03T07:44:06.275Z,584.00
2023-04-03T07:45:06.268Z,588.00
2023-04-03T07:46:06.336Z,592.00
2023-04-03T07:47:06.244Z,596.00
2023-04-03T07:48:06.228Z,596.00
2023-04-03T07:49:06.233Z,600.00
2023-04-03T07:50:06.230Z,600.00
2023-04-03T07:51:06.233Z,604.00
2023-04-03T07:52:06.200Z,608.00
2023-04-03T07:53:06.173Z,608.00
2023-04-03T07:54:06.191Z,612.00
2023-04-03T07:55:06.158Z,616.00
2023-04-03T07:56:06.133Z,620.00
2023-04-03T07:57:06.163Z,616.00
2023-04-03T07:58:06.121Z,620.00
2023-04-03T07:59:06.226Z,624.00
2023-04-03T08:00:06.106Z,620.00
2023-04-03T08:01:06.078Z,624.00
2023-04-03T08:02:06.085Z,624.00
2023-04-03T08:03:06.126Z,628.00
2023-04-03T08:04:06.162Z,632.00
2023-04-03T08:05:06.074Z,636.00
2023-04-03T08:06:07.333Z,640.00
2023-04-03T08:07:06.018Z,640.00
2023-04-03T08:08:06.024Z,644.00
2023-04-03T08:09:05.982Z,648.00
2023-04-03T08:10:05.993Z,652.00
2023-04-03T08:11:05.969Z,652.00
2023-04-03T08:12:05.962Z,660.00
2023-04-03T08:13:05.950Z,668.00
2023-04-03T08:14:05.942Z,676.00
2023-04-03T08:15:05.962Z,672.00
2023-04-03T08:16:05.913Z,688.00
2023-04-03T08:17:26.966Z,692.00
2023-04-03T08:18:05.928Z,696.00
2023-04-03T08:19:09.553Z,696.00
2023-04-03T08:20:05.917Z,696.00
2023-04-03T08:21:05.856Z,696.00
2023-04-03T08:22:27.912Z,700.00
2023-04-03T08:23:05.838Z,704.00
2023-04-03T08:24:05.825Z,712.00
2023-04-03T08:25:05.816Z,720.00
2023-04-03T08:26:05.801Z,724.00
2023-04-03T08:27:05.808Z,724.00
2023-04-03T08:28:05.778Z,732.00
2023-04-03T08:29:05.767Z,736.00
2023-04-03T08:30:05.753Z,740.00
2023-04-03T08:31:05.801Z,740.00
2023-04-03T08:32:05.734Z,748.00
2023-04-03T08:33:05.733Z,756.00
2023-04-03T08:34:05.710Z,764.00
2023-04-03T08:35:05.708Z,768.00
2023-04-03T08:36:05.751Z,768.00
2023-04-03T08:37:05.687Z,772.00
2023-04-03T08:38:05.704Z,776.00
2023-04-03T08:39:07.732Z,788.00
2023-04-03T08:40:05.667Z,800.00
2023-04-03T08:41:05.637Z,820.00
2023-04-03T08:42:05.621Z,828.00
2023-04-03T08:43:05.616Z,840.00
2023-04-03T08:44:05.609Z,792.00
2023-04-03T08:45:05.597Z,812.00
2023-04-03T08:46:05.607Z,868.00
2023-04-03T08:47:05.775Z,892.00
2023-04-03T08:48:06.209Z,904.00
2023-04-03T08:49:05.590Z,904.00
2023-04-03T08:50:05.547Z,920.00
2023-04-03T08:51:10.897Z,944.00
2023-04-03T08:52:07.587Z,816.00
2023-04-03T08:53:08.136Z,1004.00
2023-04-03T08:54:05.528Z,1008.00
2023-04-03T08:55:05.498Z,1000.00
2023-04-03T08:56:05.475Z,1036.00
2023-04-03T08:57:05.515Z,1032.00
2023-04-03T08:58:05.455Z,1032.00
2023-04-03T08:59:05.464Z,1064.00
2023-04-03T09:00:05.429Z,1132.00
2023-04-03T09:01:05.433Z,1112.00
2023-04-03T09:02:05.571Z,1236.00
2023-04-03T09:03:26.646Z,1368.00
2023-04-03T09:04:05.426Z,1304.00
2023-04-03T09:05:05.403Z,1240.00
2023-04-03T09:06:06.429Z,1180.00
2023-04-03T09:07:07.435Z,1164.00
2023-04-03T09:08:05.367Z,1160.00
2023-04-03T09:09:05.345Z,1168.00
2023-04-03T09:10:05.361Z,1172.00
2023-04-03T09:11:05.326Z,1188.00
2023-04-03T09:12:05.318Z,1204.00
2023-04-03T09:13:12.118Z,872.00
2023-04-03T09:14:05.288Z,1308.00
2023-04-03T09:15:05.273Z,1292.00
2023-04-03T09:16:05.327Z,1288.00
2023-04-03T09:17:05.266Z,1280.00
2023-04-03T09:18:05.299Z,1284.00
2023-04-03T09:19:05.319Z,1296.00
2023-04-03T09:20:05.241Z,1292.00
2023-04-03T09:21:05.211Z,1320.00
2023-04-03T09:22:05.194Z,1332.00
2023-04-03T09:23:05.189Z,1348.00
2023-04-03T09:24:05.222Z,1368.00
2023-04-03T09:25:07.247Z,1368.00
2023-04-03T09:27:51.364Z,1396.00
2023-04-03T09:28:50.748Z,1428.00
2023-04-03T09:29:49.294Z,1460.00
2023-04-03T09:30:49.729Z,1512.00
2023-04-03T09:32:12.798Z,1576.00
2023-04-03T09:32:49.312Z,1524.00
2023-04-03T09:34:10.335Z,1576.00
2023-04-03T09:34:49.231Z,1588.00
2023-04-03T09:35:49.215Z,1772.00
2023-04-03T09:36:49.210Z,1772.00
2023-04-03T09:37:49.213Z,1752.00
2023-04-03T09:38:49.192Z,1760.00
2023-04-03T09:40:10.192Z,1780.00
2023-04-03T09:40:49.172Z,1796.00
2023-04-03T09:41:49.156Z,1852.00
2023-04-03T09:44:33.892Z,2028.00
2023-04-03T09:45:33.849Z,2088.00
2023-04-03T09:46:33.908Z,2212.00
2023-04-03T09:47:34.661Z,3004.00
2023-04-03T09:48:34.156Z,5812.00
2023-04-03T09:49:34.157Z,10252.00
2023-04-03T09:50:34.916Z,13936.00
2023-04-03T09:51:33.792Z,18560.00
2023-04-03T09:52:34.367Z,18848.00
2023-04-03T09:53:33.766Z,9256.00
2023-04-03T09:54:56.827Z,2676.00
2023-04-03T09:55:33.748Z,7672.00
2023-04-03T09:56:33.742Z,18240.00
2023-04-03T09:57:54.737Z,27264.00
2023-04-03T09:58:46.960Z,26368.00
2023-04-03T09:59:33.719Z,26944.00
2023-04-03T10:00:33.715Z,25920.00
2023-04-03T10:01:33.777Z,26080.00
2023-04-03T10:02:33.728Z,24256.00
2023-04-03T10:03:34.611Z,22816.00
2023-04-03T10:04:33.685Z,13980.00
2023-04-03T10:05:33.756Z,8536.00
2023-04-03T10:06:33.669Z,13904.00
2023-04-03T10:07:33.666Z,20512.00
2023-04-03T10:08:54.662Z,20800.00
2023-04-03T10:09:33.651Z,20800.00
2023-04-03T10:10:33.638Z,20416.00
2023-04-03T10:11:33.627Z,20416.00
2023-04-03T10:12:33.617Z,20256.00
2023-04-03T10:13:36.236Z,19680.00
2023-04-03T10:16:18.794Z,20000.00
2023-04-03T10:17:39.718Z,20160.00
2023-04-03T10:18:24.325Z,20064.00
2023-04-03T10:19:18.278Z,19904.00
2023-04-03T10:20:18.283Z,20096.00
2023-04-03T10:21:27.149Z,19872.00
2023-04-03T10:22:20.398Z,19616.00
2023-04-03T10:23:18.300Z,18880.00
2023-04-03T10:24:18.264Z,16896.00
2023-04-03T10:25:18.310Z,10912.00
2023-04-03T10:26:18.252Z,11968.00
2023-04-03T10:27:18.270Z,18656.00
2023-04-03T10:28:18.266Z,23360.00
2023-04-03T10:29:18.216Z,24288.00
2023-04-03T10:30:18.412Z,24160.00
2023-04-03T10:31:18.253Z,24544.00
2023-04-03T10:32:18.203Z,24544.00
2023-04-03T10:33:18.215Z,24384.00
2023-04-03T10:34:18.203Z,24224.00
2023-04-03T10:35:18.200Z,24256.00
2023-04-03T10:36:18.203Z,24576.00
2023-04-03T10:37:18.272Z,24384.00
2023-04-03T10:38:18.198Z,24640.00
2023-04-03T10:39:18.161Z,24768.00
2023-04-03T10:40:18.195Z,24864.00
2023-04-03T10:41:18.165Z,24896.00
2023-04-03T10:42:18.319Z,25280.00
2023-04-03T10:43:18.148Z,25696.00
2023-04-03T10:44:18.147Z,26304.00
2023-04-03T10:45:18.147Z,26560.00
2023-04-03T10:46:18.222Z,27360.00
2023-04-03T10:47:18.151Z,29408.00
2023-04-03T10:48:18.213Z,30656.00
2023-04-03T10:49:40.650Z,30592.00
2023-04-03T10:50:18.124Z,30272.00
2023-04-03T10:51:18.175Z,29568.00
2023-04-03T10:52:18.126Z,29824.00
2023-04-03T10:53:39.201Z,29120.00
2023-04-03T10:54:19.240Z,27968.00
2023-04-03T10:55:18.120Z,26720.00
2023-04-03T10:56:18.114Z,25600.00
2023-04-03T10:57:18.196Z,24672.00
2023-04-03T10:58:18.095Z,23936.00
2023-04-03T10:59:18.090Z,23360.00
2023-04-03T11:00:39.402Z,22880.00
2023-04-03T11:01:18.089Z,22400.00
2023-04-03T11:02:18.294Z,22240.00
2023-04-03T11:03:18.129Z,21856.00
2023-04-03T11:04:18.061Z,21344.00
2023-04-03T11:05:18.076Z,21248.00
2023-04-03T11:06:18.042Z,20864.00
2023-04-03T11:07:39.073Z,20416.00
2023-04-03T11:08:39.163Z,20064.00
2023-04-03T11:09:18.125Z,19744.00
2023-04-03T11:10:18.083Z,19520.00
2023-04-03T11:11:19.286Z,18976.00
2023-04-03T11:12:40.073Z,18688.00
2023-04-03T11:13:18.015Z,18400.00
2023-04-03T11:14:39.094Z,18112.00
2023-04-03T11:15:18.010Z,17888.00
2023-04-03T11:19:32.413Z,16672.00
2023-04-03T11:20:19.593Z,16512.00
2023-04-03T11:22:53.282Z,15712.00
2023-04-03T11:23:53.065Z,15348.00
2023-04-03T11:25:47.465Z,14972.00
2023-04-03T11:26:47.470Z,14696.00
2023-04-03T11:28:42.857Z,14328.00
2023-04-03T11:31:28.512Z,13816.00
2023-04-03T11:32:28.989Z,13760.00
2023-04-03T11:34:22.642Z,13496.00
2023-04-03T11:35:22.565Z,13360.00
2023-04-03T11:37:17.113Z,13004.00
2023-04-03T11:38:17.157Z,12892.00
2023-04-03T11:40:12.069Z,11388.00
2023-04-03T11:41:11.020Z,6580.00
2023-04-03T11:43:05.645Z,1472.00
2023-04-03T11:44:05.379Z,1180.00
2023-04-03T11:46:02.683Z,1020.00
2023-04-03T11:47:00.782Z,1020.00
2023-04-03T11:48:55.592Z,1016.00
2023-04-03T11:49:56.047Z,1016.00
2023-04-03T11:50:55.553Z,1024.00
2023-04-03T11:52:16.529Z,1012.00
2023-04-03T11:53:19.627Z,1008.00
2023-04-03T11:53:55.976Z,992.00
2023-04-03T11:54:55.532Z,980.00
2023-04-03T11:55:56.019Z,972.00
2023-04-03T11:56:56.047Z,968.00
2023-04-03T11:57:55.505Z,972.00
2023-04-03T11:58:55.484Z,964.00
2023-04-03T11:59:55.960Z,964.00
2023-04-03T12:00:56.040Z,964.00
2023-04-03T12:01:56.025Z,964.00
2023-04-03T12:02:55.441Z,960.00
2023-04-03T12:04:16.610Z,948.00
2023-04-03T12:04:55.407Z,948.00
2023-04-03T12:05:55.952Z,948.00
2023-04-03T12:06:55.000Z,940.00
2023-04-03T12:07:55.034Z,936.00
2023-04-03T12:08:55.426Z,932.00
2023-04-03T12:09:55.936Z,920.00
2023-04-03T12:10:55.431Z,916.00
2023-04-03T12:11:55.904Z,912.00
2023-04-03T12:12:55.377Z,904.00
2023-04-03T12:13:55.885Z,900.00
2023-04-03T12:15:16.916Z,900.00
2023-04-03T12:15:55.395Z,896.00
2023-04-03T12:17:16.364Z,896.00
2023-04-03T12:17:55.406Z,892.00
2023-04-03T12:18:55.818Z,892.00
2023-04-03T12:19:55.367Z,888.00
2023-04-03T12:20:54.867Z,888.00
2023-04-03T12:21:54.849Z,888.00
2023-04-03T12:22:54.852Z,880.00
2023-04-03T12:23:55.864Z,884.00
2023-04-03T12:24:55.919Z,880.00
2023-04-03T12:25:56.901Z,880.00
2023-04-03T12:26:54.824Z,876.00
2023-04-03T12:27:54.821Z,876.00
2023-04-03T12:28:54.926Z,876.00
2023-04-03T12:29:54.806Z,876.00
2023-04-03T12:30:54.798Z,876.00
2023-04-03T12:31:54.783Z,872.00
2023-04-03T12:33:05.797Z,872.00
2023-04-03T12:33:54.769Z,868.00
2023-04-03T12:34:54.791Z,868.00
2023-04-03T12:35:54.800Z,868.00
2023-04-03T12:38:40.852Z,864.00
2023-04-03T12:39:40.686Z,864.00
2023-04-03T12:41:35.918Z,868.00
2023-04-03T12:42:35.631Z,868.00
2023-04-03T12:44:32.225Z,864.00
2023-04-03T12:45:32.069Z,864.00
2023-04-03T12:47:26.675Z,864.00
2023-04-03T12:48:26.439Z,872.00
2023-04-03T12:50:22.130Z,876.00
2023-04-03T12:51:21.720Z,876.00
2023-04-03T12:53:17.240Z,876.00
2023-04-03T12:54:16.963Z,876.00
2023-04-03T12:56:12.801Z,876.00
2023-04-03T12:57:12.470Z,880.00
2023-04-03T12:59:08.073Z,880.00
2023-04-03T13:00:07.669Z,884.00
2023-04-03T13:02:05.112Z,880.00
2023-04-03T13:03:03.129Z,876.00
2023-04-03T13:04:58.816Z,876.00
2023-04-03T13:05:58.420Z,880.00
2023-04-03T13:07:54.382Z,884.00
2023-04-03T13:08:53.508Z,880.00